Flight Track Log - Related Links

Times and Time Zones

All times are in EDT time to prevent confusion due to time zone crossing. See the N464SR flight status page for this flight to view local times or setup timezone preferences in your user account.

Time Position Orientation Groundspeed Altitude Reporting Facility
EDT Latitude Longitude Course Direction KTS MPH feet Rate Location/Type
Tue 05:19:42 PM 44.0000 -88.5500 309° West 70 81 1,500  Level KMKE
Tue 05:20:25 PM 44.0167 -88.5667 324° Northwest 121 139 2,200 944 Climbing KMKE
Tue 05:21:11 PM 44.0197 -88.5956 278° West 113 130 2,900 889 Climbing Minneapolis Center
Tue 05:22:13 PM 44.0292 -88.6419 286° West 121 139 3,800 871 Climbing Minneapolis Center
Tue 05:23:15 PM 44.0514 -88.6792 310° West 125 144 4,700 871 Climbing Minneapolis Center
Tue 05:24:17 PM 44.0772 -88.7122 317° Northwest 125 144 5,600 629 Climbing Minneapolis Center
Tue 05:25:00 PM 44.1480 -88.8381 309° West  Level FlightAware Approximate
Tue 05:25:19 PM 44.1069 -88.7564 313° West 129 148 6,000  Level Minneapolis Center
Tue 05:26:21 PM 44.1356 -88.8058 309° West 146 168 6,000 384 Level Minneapolis Center
Tue 05:27:24 PM 44.1644 -88.8581 308° West 161 185 6,800 768 Climbing Minneapolis Center
Tue 05:28:26 PM 44.1864 -88.8975 308° West 147 169 7,600 581 Climbing Minneapolis Center
Tue 05:29:28 PM 44.2086 -88.9353 309° West 133 153 8,000 242 Climbing Minneapolis Center
Tue 05:30:30 PM 44.2394 -88.9914 308° West 144 166 8,100 48 Climbing Minneapolis Center
Tue 05:31:32 PM 44.2669 -89.0464 305° West 159 183 8,100  Level Minneapolis Center
Tue 05:32:34 PM 44.2978 -89.1050 306° West 171 197 8,100 -48 Level Minneapolis Center
Tue 05:33:36 PM 44.3281 -89.1586 308° West 168 193 8,000 -48 Descending Minneapolis Center
Tue 05:34:38 PM 44.3600 -89.2106 311° West 168 193 8,000  Level Minneapolis Center
Tue 05:35:40 PM 44.3875 -89.2567 310° West 163 188 8,000 97 Level Minneapolis Center
Tue 05:36:42 PM 44.4142 -89.3156 302° West 171 197 8,200  Climbing Minneapolis Center
Tue 05:37:45 PM 44.4300 -89.3797 289° West 168 193 8,000 -96 Descending Minneapolis Center
Tue 05:38:47 PM 44.4461 -89.4439 289° West 166 191 8,000 -145 Level Minneapolis Center
Tue 05:39:49 PM 44.4611 -89.5083 288° West 169 194 7,700 -339 Descending Minneapolis Center
Tue 05:40:51 PM 44.4747 -89.5756 286° West 172 198 7,300 -387 Descending Minneapolis Center
Tue 05:41:53 PM 44.4886 -89.6408 287° West 169 194 6,900 -387 Descending Minneapolis Center
Tue 05:42:55 PM 44.5031 -89.7067 287° West 170 196 6,500 -397 Descending Minneapolis Center
Tue 05:44:09 PM 44.5169 -89.7697 287° West 164 189 6,000 -219 Descending Minneapolis Center
Tue 05:45:12 PM 44.5344 -89.8406 289° West 161 185 6,000  Level Minneapolis Center
Tue 05:46:14 PM 44.5486 -89.9036 288° West 162 186 6,000 48 Level Minneapolis Center
Tue 05:47:16 PM 44.5625 -89.9694 287° West 169 194 6,100  Climbing Minneapolis Center
Tue 05:48:18 PM 44.5781 -90.0344 289° West 169 194 6,000 -48 Descending Minneapolis Center
Tue 05:49:20 PM 44.5908 -90.0906 288° West 159 183 6,000 48 Level Minneapolis Center
Tue 05:50:22 PM 44.6061 -90.1528 289° West 162 186 6,100  Climbing Minneapolis Center
Tue 05:51:24 PM 44.6192 -90.2133 287° West 157 181 6,000 48 Descending Minneapolis Center
Tue 05:52:26 PM 44.6333 -90.2728 289° West 155 178 6,200 48 Climbing Minneapolis Center
Tue 05:53:28 PM 44.6444 -90.3336 284° West 155 178 6,100 -97 Descending Minneapolis Center
Tue 05:54:30 PM 44.6583 -90.3975 287° West 161 185 6,000  Descending Minneapolis Center
Tue 05:55:32 PM 44.6706 -90.4619 285° West 163 188 6,100  Climbing Minneapolis Center
Tue 05:56:46 PM 44.6839 -90.5197 288° West 162 186 6,000 -44 Descending Minneapolis Center
Tue 05:57:49 PM 44.7011 -90.5989 287° West 164 189 6,000  Level Minneapolis Center
Tue 05:58:50 PM 44.7117 -90.6464 287° West 161 185 6,000  Level Minneapolis Center
Tue 05:59:53 PM 44.7275 -90.7233 286° West 160 184 6,000 -48 Level Minneapolis Center
Tue 06:00:55 PM 44.7431 -90.7844 290° West 160 184 5,900 -48 Descending Minneapolis Center
Tue 06:01:57 PM 44.7564 -90.8436 288° West 164 189 5,900  Level Minneapolis Center
Tue 06:02:59 PM 44.7697 -90.9072 286° West 163 188 5,900 48 Level Minneapolis Center
Tue 06:04:01 PM 44.7806 -90.9719 283° West 163 188 6,000  Climbing Minneapolis Center
Tue 06:05:03 PM 44.7939 -91.0358 286° West 163 188 5,900 -44 Descending Minneapolis Center
Tue 06:06:17 PM 44.8072 -91.0992 287° West 164 189 5,900  Level Minneapolis Center
Tue 06:07:20 PM 44.8250 -91.1744 288° West 168 193 5,900 48 Level Minneapolis Center
Tue 06:08:22 PM 44.8403 -91.2381 289° West 164 189 6,000  Climbing Minneapolis Center
Tue 06:09:24 PM 44.8561 -91.2975 291° West 157 181 5,900 -48 Descending Minneapolis Center
Tue 06:10:26 PM 44.8714 -91.3583 290° West 157 181 5,900  Level Minneapolis Center
Tue 06:11:53 PM 44.8892 -91.4314 289° West 163 188 5,900  Level Minneapolis Center
Tue 06:12:55 PM 44.9050 -91.5097 286° West 161 185 5,900  Level Minneapolis Center
Tue 06:13:57 PM 44.9200 -91.5722 289° West 162 186 5,900  Level Minneapolis Center
Tue 06:15:00 PM 44.9375 -91.6347 292° West 165 190 5,900 48 Level Minneapolis Center
Tue 06:16:02 PM 44.9561 -91.6917 295° West 163 188 6,000  Climbing Minneapolis Center
Tue 06:17:04 PM 44.9708 -91.7506 289° West 161 185 5,900 -48 Descending Minneapolis Center
Tue 06:18:06 PM 44.9842 -91.8106 287° West 162 186 5,900 48 Level Minneapolis Center
Tue 06:19:08 PM 45.0008 -91.8711 291° West 166 191 6,000 48 Climbing Minneapolis Center
Tue 06:20:10 PM 45.0181 -91.9300 292° West 164 189 6,000 -48 Level Minneapolis Center
Tue 06:21:12 PM 45.0364 -92.0017 290° West 162 186 5,900 -145 Descending Minneapolis Center
Tue 06:22:14 PM 45.0514 -92.0597 290° West 160 184 5,700 -339 Descending Minneapolis Center
Tue 06:23:16 PM 45.0656 -92.1217 288° West 163 188 5,200 -484 Descending Minneapolis Center
Tue 06:24:18 PM 45.0803 -92.1803 290° West 159 183 4,700 -484 Descending Minneapolis Center
Tue 06:25:20 PM 45.0914 -92.2408 285° West 160 184 4,200 -288 Descending Minneapolis Center
Tue 06:26:23 PM 45.1092 -92.3078 291° West 153 176 4,100 -96 Descending Minneapolis Center
Tue 06:27:25 PM 45.1239 -92.3642 290° West 155 178 4,000 -97 Descending Minneapolis Center
Tue 06:28:27 PM 45.1272 -92.4239 275° West 155 178 3,900  Descending Minneapolis Center
Tue 06:29:29 PM 45.1236 -92.4850 265° West 156 180 4,000  Climbing Minneapolis Center
Tue 06:30:31 PM 45.1256 -92.5428 273° West 148 170 3,900  Descending Minneapolis Center
Tue 06:31:32 PM 45.1289 -92.5911 276° West 154 177 4,000  Climbing Minneapolis Center
Tue 06:32:47 PM 45.1297 -92.6764 271° West 157 181 3,900 -43 Descending Minneapolis Center
Tue 06:33:50 PM 45.1311 -92.7478 272° West 152 175 3,900 96 Level Minneapolis Center
Tue 06:34:52 PM 45.1319 -92.8069 271° West 151 174 4,100  Climbing Minneapolis Center
Tue 06:35:54 PM 45.1342 -92.8672 273° West 153 176 3,900  Descending Minneapolis Center
Tue 06:36:56 PM 45.1289 -92.9253 263° West 153 176 4,100 48 Climbing Minneapolis Center
Tue 06:37:58 PM 45.1117 -92.9914 250° West 150 173 4,000 -97 Descending Minneapolis Center
Tue 06:39:00 PM 45.1011 -93.0464 255° West 147 169 3,900 -290 Descending Minneapolis Center
Tue 06:40:02 PM 45.0978 -93.1047 265° West 150 173 3,400 -532 Descending Minneapolis Center
Tue 06:41:04 PM 45.0883 -93.1619 257° West 150 173 2,800 -484 Descending Minneapolis Center
Tue 06:42:06 PM 45.0797 -93.2200 258° West 151 174 2,400 -484 Descending Minneapolis Center
Tue 06:43:08 PM 45.0808 -93.2864 271° West 141 162 1,800 -387 Descending Minneapolis Center
Tue 06:44:10 PM 45.0828 -93.3356 273° West 129 148 1,600 -339 Descending Minneapolis Center
Tue 06:45:12 PM 45.0769 -93.3683 256° West 99 114 1,100 -484 Descending Minneapolis Center
Tue 06:47:00 PM 45.0620 -93.3539 180° South  Level Estimated

Login

Don't have an account? Register now (free) for customized features, flight alerts, and more!